UNEE

Details ICAO UNEE (KEJ)
Name KEMEROVO
Region Russia
Timezone Asia/Novokuznetsk (UTC+7.0)
Plans Departing 40
Arriving 28
Stats Elevation 863 ft / 263 m (AMSL)
Location 55.271271° 86.107893°
Runways 2
Magnetic Variation 7.384° E
Sunrise 2017-12-12 02:34:19 UTC / 2017-12-12 09:34:19 Local
Sunset 2017-12-12 09:46:55 UTC / 2017-12-12 16:46:55 Local
Advertisement - Login to hide

Runways

ID Width Length Bearing (true) Bearing (mag) Surface Threshold Offset Overrun Length
05 197 ft / 60 m 10,486 ft / 3,196 m 53.55° 46.17° Concrete 0 ft / 0 m 235 ft / 72 m
05L 155 ft / 47 m 8,637 ft / 2,633 m 55.18° 47.80° Asphalt 0 ft / 0 m 160 ft / 49 m
23 197 ft / 60 m 10,486 ft / 3,196 m 233.58° 226.20° Concrete 0 ft / 0 m 235 ft / 72 m
23R 155 ft / 47 m 8,637 ft / 2,633 m 235.20° 227.82° Asphalt 0 ft / 0 m 0 ft / 0 m

Map

Weather


0- 5 10 15 20 25 30 35+ Temperature / ° C

Clouds and Precipitation
Forecast for 2017-12-12 18:00 UTC. Updated an hour ago

Ground ~20,000 ft ~40,000 ft Winds

METAR

UNEE 121430Z 13001MPS 3600 -SN BR OVC018 M14/M16 Q1032 R23/851040 NOSIG RMK QFE751

TAF

TAF UNEE 121400Z 1215/1315 18003MPS 5000 -SN BR BKN020 TEMPO 1215/1305 0300 FZFG BKN002 BKN011

Frequencies

Tower 118.30 MHz START
Approach 125.50 MHz APP
Approach 129.00 MHz APP
Approach 128.50 MHz APP
Warning: Do not use this data for real-world aviation or navigation. No guarantee of current accuracy is given.